Unidilla, Georgia
Current Conditions -  °F | °C
As of 5:35 PM on Monday 26 Jan 2015 (Local Time) from KPXE Reporting Station
Scattered Clouds Scattered Clouds  
Wind Chill:   Ceiling: Unl
Heat Index:   Visibility: 10mi
Dew Point:   Wind: 12mph
Humidity: 55%   Direction: 330°NNW
Pressure: 29.9"   Gusts: 20mph
Location:  32.2533°N, 83.7537°W
Report Text: KPXE 262235Z AUTO 33010G17KT 10SM SCT034 09/00 A2990 RMK AO2 T00850000
Loading
Personal Weather Stations






























Interactive Weather Map New forecast layout! Learn more

10-Day Weather Forecast

Advertisements
Track Severe Weather on mobile